PUA1502 SUMU-SABE
Flight info
| Callsign | PUA1502 |
|---|---|
| Flight time | 0h 30m |
| Altitude | 16000 |
| Route | DAGUS DCT UGIMI UGIMI8R |
| Aircraft | A320/M-SDE3FGHIRWY/LB1 |
Departure
| Time | 2026-04-22 18:09 |
|---|---|
| Airport | Carrasco General Cesáreo L. Berisso International Airport (SUMU) |
Arrival
| Time | 2026-04-22 18:39 |
|---|---|
| Airport | Aeroparque Jorge Newbery (SABE) |
| Time | Latitude | Longitude | Altitude | Speed | Heading |
|---|---|---|---|---|---|
| 2026-04-22 17:19 | -34.83745 | -56.02006 | 85 ft | 0 kts | 142° |
| 2026-04-22 17:32 | -34.83745 | -56.02007 | 82 ft | 0 kts | 142° |
| 2026-04-22 17:45 | -34.83744 | -56.02007 | 82 ft | 0 kts | 142° |
| 2026-04-22 17:56 | -34.83741 | -56.02010 | 82 ft | 2 kts | 142° |
| 2026-04-22 17:56 | -34.83730 | -56.02020 | 83 ft | 2 kts | 142° |
| 2026-04-22 17:57 | -34.83718 | -56.02033 | 85 ft | 2 kts | 137° |
| 2026-04-22 17:57 | -34.83706 | -56.02046 | 86 ft | 2 kts | 137° |
| 2026-04-22 17:57 | -34.83696 | -56.02065 | 87 ft | 3 kts | 90° |
| 2026-04-22 17:57 | -34.83698 | -56.02088 | 85 ft | 3 kts | 69° |
| 2026-04-22 17:58 | -34.83695 | -56.02091 | 86 ft | 2 kts | 41° |
| 2026-04-22 17:58 | -34.83685 | -56.02077 | 85 ft | 0 kts | 49° |
| 2026-04-22 18:01 | -34.83674 | -56.02060 | 86 ft | 5 kts | 54° |
| 2026-04-22 18:01 | -34.83648 | -56.02015 | 85 ft | 9 kts | 55° |
| 2026-04-22 18:01 | -34.83606 | -56.01945 | 84 ft | 11 kts | 50° |
| 2026-04-22 18:02 | -34.83560 | -56.01877 | 85 ft | 11 kts | 52° |
| 2026-04-22 18:02 | -34.83508 | -56.01794 | 83 ft | 12 kts | 53° |
| 2026-04-22 18:02 | -34.83440 | -56.01772 | 84 ft | 10 kts | 330° |
| 2026-04-22 18:02 | -34.83382 | -56.01824 | 85 ft | 12 kts | 323° |
| 2026-04-22 18:03 | -34.83303 | -56.01854 | 82 ft | 14 kts | 25° |
| 2026-04-22 18:03 | -34.83243 | -56.01769 | 85 ft | 14 kts | 53° |
| 2026-04-22 18:03 | -34.83182 | -56.01668 | 83 ft | 16 kts | 51° |
| 2026-04-22 18:03 | -34.83119 | -56.01563 | 83 ft | 15 kts | 54° |
| 2026-04-22 18:04 | -34.83072 | -56.01485 | 85 ft | 11 kts | 52° |
| 2026-04-22 18:04 | -34.83035 | -56.01426 | 85 ft | 4 kts | 53° |
| 2026-04-22 18:04 | -34.83012 | -56.01388 | 85 ft | 7 kts | 53° |
| 2026-04-22 18:04 | -34.82972 | -56.01323 | 86 ft | 12 kts | 52° |
| 2026-04-22 18:05 | -34.82913 | -56.01231 | 86 ft | 15 kts | 52° |
| 2026-04-22 18:05 | -34.82843 | -56.01142 | 85 ft | 13 kts | 24° |
| 2026-04-22 18:05 | -34.82771 | -56.01147 | 83 ft | 2 kts | 351° |
| 2026-04-22 18:05 | -34.82749 | -56.01152 | 84 ft | 4 kts | 345° |
| 2026-04-22 18:06 | -34.82714 | -56.01173 | 86 ft | 7 kts | 330° |
| 2026-04-22 18:06 | -34.82703 | -56.01213 | 85 ft | 0 kts | 234° |
| 2026-04-22 18:08 | -34.82705 | -56.01217 | 82 ft | 9 kts | 234° |
| 2026-04-22 18:08 | -34.82897 | -56.01537 | 83 ft | 81 kts | 234° |
| 2026-04-22 18:08 | -34.83345 | -56.02274 | 85 ft | 133 kts | 234° |
| 2026-04-22 18:08 | -34.83970 | -56.03293 | 334 ft | 155 kts | 236° |
| 2026-04-22 18:09 | -34.84607 | -56.04344 | 1125 ft | 154 kts | 234° |
| 2026-04-22 18:09 | -34.85260 | -56.05401 | 1695 ft | 163 kts | 230° |
| 2026-04-22 18:09 | -34.86278 | -56.06169 | 1976 ft | 188 kts | 202° |
| 2026-04-22 18:09 | -34.87598 | -56.06659 | 2367 ft | 205 kts | 198° |
| 2026-04-22 18:10 | -34.89039 | -56.07141 | 2886 ft | 224 kts | 197° |
| 2026-04-22 18:10 | -34.90589 | -56.07652 | 3456 ft | 235 kts | 197° |
| 2026-04-22 18:10 | -34.92171 | -56.08183 | 4073 ft | 238 kts | 198° |
| 2026-04-22 18:10 | -34.93767 | -56.08732 | 4744 ft | 238 kts | 198° |
| 2026-04-22 18:11 | -34.95368 | -56.09298 | 5415 ft | 241 kts | 199° |
| 2026-04-22 18:11 | -34.96991 | -56.09884 | 6100 ft | 245 kts | 200° |
| 2026-04-22 18:11 | -34.98627 | -56.10514 | 6771 ft | 246 kts | 207° |
| 2026-04-22 18:11 | -35.00006 | -56.11689 | 7421 ft | 242 kts | 231° |
| 2026-04-22 18:12 | -35.00808 | -56.13471 | 8108 ft | 242 kts | 254° |
| 2026-04-22 18:12 | -35.00932 | -56.15500 | 8828 ft | 246 kts | 269° |
| 2026-04-22 18:12 | -35.00861 | -56.17589 | 9573 ft | 247 kts | 269° |
| 2026-04-22 18:12 | -35.00786 | -56.19695 | 10297 ft | 251 kts | 269° |
| 2026-04-22 18:13 | -35.00712 | -56.21851 | 10994 ft | 257 kts | 270° |
| 2026-04-22 18:13 | -35.00638 | -56.24052 | 11703 ft | 263 kts | 271° |
| 2026-04-22 18:13 | -35.00557 | -56.26306 | 12389 ft | 269 kts | 271° |
| 2026-04-22 18:13 | -35.00474 | -56.28608 | 13077 ft | 275 kts | 272° |
| 2026-04-22 18:14 | -35.00390 | -56.30952 | 13784 ft | 279 kts | 272° |
| 2026-04-22 18:14 | -35.00306 | -56.33339 | 14427 ft | 283 kts | 272° |
| 2026-04-22 18:14 | -35.00222 | -56.35754 | 15067 ft | 287 kts | 273° |
| 2026-04-22 18:14 | -35.00137 | -56.38196 | 15717 ft | 290 kts | 273° |
| 2026-04-22 18:15 | -35.00050 | -56.40719 | 16005 ft | 306 kts | 273° |
| 2026-04-22 18:15 | -34.99954 | -56.43403 | 16082 ft | 327 kts | 273° |
| 2026-04-22 18:15 | -34.99853 | -56.46257 | 16089 ft | 344 kts | 273° |
| 2026-04-22 18:15 | -34.99746 | -56.49186 | 16090 ft | 343 kts | 273° |
| 2026-04-22 18:16 | -34.99644 | -56.52047 | 16092 ft | 334 kts | 273° |
| 2026-04-22 18:16 | -34.99544 | -56.54832 | 16091 ft | 333 kts | 273° |
| 2026-04-22 18:16 | -34.99444 | -56.57647 | 16093 ft | 332 kts | 273° |
| 2026-04-22 18:16 | -34.99342 | -56.60457 | 16093 ft | 332 kts | 273° |
| 2026-04-22 18:17 | -34.99239 | -56.63267 | 16095 ft | 332 kts | 273° |
| 2026-04-22 18:17 | -34.99136 | -56.66078 | 16095 ft | 332 kts | 274° |
| 2026-04-22 18:17 | -34.99030 | -56.68889 | 16097 ft | 332 kts | 274° |
| 2026-04-22 18:17 | -34.98922 | -56.71698 | 16098 ft | 331 kts | 274° |
| 2026-04-22 18:18 | -34.98813 | -56.74501 | 16099 ft | 331 kts | 274° |
| 2026-04-22 18:18 | -34.98703 | -56.77311 | 16101 ft | 331 kts | 274° |
| 2026-04-22 18:18 | -34.98596 | -56.80115 | 16104 ft | 331 kts | 274° |
| 2026-04-22 18:18 | -34.98489 | -56.82929 | 16088 ft | 333 kts | 274° |
| 2026-04-22 18:19 | -34.98382 | -56.85748 | 16084 ft | 334 kts | 274° |
| 2026-04-22 18:19 | -34.98275 | -56.88579 | 16080 ft | 335 kts | 273° |
| 2026-04-22 18:19 | -34.98209 | -56.91422 | 16080 ft | 336 kts | 272° |
| 2026-04-22 18:19 | -34.98193 | -56.94270 | 16082 ft | 336 kts | 271° |
| 2026-04-22 18:20 | -34.98201 | -56.97122 | 16085 ft | 337 kts | 271° |
| 2026-04-22 18:20 | -34.98214 | -56.99979 | 16090 ft | 337 kts | 271° |
| 2026-04-22 18:20 | -34.98224 | -57.02844 | 16093 ft | 337 kts | 271° |
| 2026-04-22 18:20 | -34.98226 | -57.05718 | 16102 ft | 343 kts | 271° |
| 2026-04-22 18:21 | -34.98219 | -57.08648 | 16104 ft | 347 kts | 271° |
| 2026-04-22 18:21 | -34.98204 | -57.11590 | 16103 ft | 347 kts | 271° |
| 2026-04-22 18:21 | -34.98187 | -57.14497 | 16099 ft | 348 kts | 272° |
| 2026-04-22 18:21 | -34.98168 | -57.17443 | 16101 ft | 347 kts | 272° |
| 2026-04-22 18:22 | -34.98151 | -57.20374 | 16097 ft | 342 kts | 272° |
| 2026-04-22 18:22 | -34.98137 | -57.23250 | 16101 ft | 338 kts | 271° |
| 2026-04-22 18:22 | -34.97982 | -57.26096 | 16100 ft | 336 kts | 282° |
| 2026-04-22 18:22 | -34.97261 | -57.28802 | 16105 ft | 336 kts | 289° |
| 2026-04-22 18:23 | -34.96455 | -57.31471 | 16103 ft | 336 kts | 289° |
| 2026-04-22 18:23 | -34.95640 | -57.34142 | 16104 ft | 336 kts | 289° |
| 2026-04-22 18:23 | -34.94821 | -57.36808 | 16058 ft | 336 kts | 289° |
| 2026-04-22 18:24 | -34.93208 | -57.42060 | 15198 ft | 325 kts | 289° |
| 2026-04-22 18:24 | -34.92422 | -57.44616 | 14738 ft | 320 kts | 289° |
| 2026-04-22 18:24 | -34.90884 | -57.49627 | 13851 ft | 312 kts | 289° |
| 2026-04-22 18:25 | -34.90132 | -57.52080 | 13353 ft | 304 kts | 288° |
| 2026-04-22 18:25 | -34.89408 | -57.54440 | 12885 ft | 293 kts | 288° |
| 2026-04-22 18:25 | -34.88703 | -57.56738 | 12423 ft | 287 kts | 287° |
| 2026-04-22 18:26 | -34.87328 | -57.61198 | 11621 ft | 277 kts | 287° |
| 2026-04-22 18:26 | -34.86656 | -57.63368 | 11237 ft | 271 kts | 287° |
| 2026-04-22 18:26 | -34.85995 | -57.65502 | 10850 ft | 267 kts | 286° |
| 2026-04-22 18:26 | -34.85351 | -57.67585 | 10515 ft | 266 kts | 285° |
| 2026-04-22 18:27 | -34.84700 | -57.69695 | 10182 ft | 266 kts | 285° |
| 2026-04-22 18:27 | -34.84049 | -57.71802 | 9842 ft | 266 kts | 285° |
| 2026-04-22 18:27 | -34.83396 | -57.73908 | 9479 ft | 266 kts | 285° |
| 2026-04-22 18:27 | -34.82746 | -57.76015 | 9121 ft | 266 kts | 285° |
| 2026-04-22 18:28 | -34.82100 | -57.78115 | 8767 ft | 265 kts | 285° |
| 2026-04-22 18:28 | -34.81452 | -57.80219 | 8414 ft | 265 kts | 285° |
| 2026-04-22 18:28 | -34.80803 | -57.82319 | 8067 ft | 265 kts | 285° |
| 2026-04-22 18:28 | -34.80158 | -57.84391 | 7723 ft | 259 kts | 285° |
| 2026-04-22 18:29 | -34.79520 | -57.86442 | 7379 ft | 260 kts | 285° |
| 2026-04-22 18:29 | -34.78884 | -57.88484 | 7039 ft | 254 kts | 285° |
| 2026-04-22 18:29 | -34.78266 | -57.90457 | 6710 ft | 245 kts | 285° |
| 2026-04-22 18:29 | -34.77661 | -57.92393 | 6391 ft | 245 kts | 285° |
| 2026-04-22 18:30 | -34.77060 | -57.94314 | 6067 ft | 241 kts | 285° |
| 2026-04-22 18:30 | -34.75882 | -57.98110 | 5409 ft | 239 kts | 285° |
| 2026-04-22 18:30 | -34.75295 | -58.00003 | 5096 ft | 239 kts | 286° |
| 2026-04-22 18:31 | -34.74707 | -58.01893 | 4796 ft | 239 kts | 286° |
| 2026-04-22 18:31 | -34.74119 | -58.03779 | 4483 ft | 239 kts | 287° |
| 2026-04-22 18:31 | -34.73554 | -58.05583 | 4184 ft | 234 kts | 287° |
| 2026-04-22 18:31 | -34.72978 | -58.07414 | 3889 ft | 231 kts | 288° |
| 2026-04-22 18:32 | -34.72579 | -58.08683 | 3679 ft | 231 kts | 288° |
| 2026-04-22 18:32 | -34.72008 | -58.10502 | 3379 ft | 230 kts | 288° |
| 2026-04-22 18:32 | -34.71439 | -58.12312 | 3088 ft | 228 kts | 288° |
| 2026-04-22 18:32 | -34.70882 | -58.14086 | 3010 ft | 221 kts | 288° |
| 2026-04-22 18:33 | -34.70251 | -58.15791 | 2910 ft | 222 kts | 298° |
| 2026-04-22 18:33 | -34.69399 | -58.17340 | 2774 ft | 216 kts | 301° |
| 2026-04-22 18:33 | -34.68574 | -58.18817 | 2671 ft | 207 kts | 301° |
| 2026-04-22 18:33 | -34.67784 | -58.20231 | 2578 ft | 199 kts | 301° |
| 2026-04-22 18:34 | -34.67016 | -58.21608 | 2476 ft | 196 kts | 301° |
| 2026-04-22 18:34 | -34.66260 | -58.22972 | 2346 ft | 193 kts | 301° |
| 2026-04-22 18:34 | -34.65510 | -58.24328 | 2219 ft | 193 kts | 300° |
| 2026-04-22 18:34 | -34.64761 | -58.25684 | 2106 ft | 193 kts | 301° |
| 2026-04-22 18:35 | -34.64021 | -58.27020 | 2006 ft | 188 kts | 301° |
| 2026-04-22 18:35 | -34.63294 | -58.28331 | 1888 ft | 186 kts | 300° |
| 2026-04-22 18:35 | -34.62613 | -58.29553 | 1803 ft | 186 kts | 301° |
| 2026-04-22 18:35 | -34.61890 | -58.30855 | 1724 ft | 185 kts | 300° |
| 2026-04-22 18:36 | -34.61199 | -58.32095 | 1716 ft | 172 kts | 300° |
| 2026-04-22 18:36 | -34.60551 | -58.33256 | 1612 ft | 164 kts | 301° |
| 2026-04-22 18:36 | -34.59929 | -58.34368 | 1404 ft | 151 kts | 301° |
| 2026-04-22 18:36 | -34.59355 | -58.35393 | 1162 ft | 144 kts | 301° |
| 2026-04-22 18:37 | -34.58802 | -58.36387 | 957 ft | 141 kts | 300° |
| 2026-04-22 18:37 | -34.58265 | -58.37359 | 774 ft | 140 kts | 301° |
| 2026-04-22 18:37 | -34.57906 | -58.38023 | 624 ft | 139 kts | 301° |
| 2026-04-22 18:37 | -34.57182 | -58.39317 | 313 ft | 139 kts | 301° |
| 2026-04-22 18:38 | -34.56650 | -58.40277 | 138 ft | 139 kts | 301° |
| 2026-04-22 18:38 | -34.56121 | -58.41232 | 31 ft | 127 kts | 302° |
| 2026-04-22 18:38 | -34.55721 | -58.41941 | 25 ft | 64 kts | 304° |
| 2026-04-22 18:39 | -34.55504 | -58.42323 | 27 ft | 24 kts | 301° |
| 2026-04-22 18:39 | -34.55419 | -58.42480 | 27 ft | 17 kts | 306° |
| 2026-04-22 18:39 | -34.55364 | -58.42431 | 25 ft | 16 kts | 97° |
| 2026-04-22 18:39 | -34.55366 | -58.42411 | 25 ft | 0 kts | 99° |
| 2026-04-22 18:40 | -34.55367 | -58.42410 | 25 ft | 1 kts | 99° |
| 2026-04-22 18:40 | -34.55374 | -58.42376 | 30 ft | 6 kts | 111° |
| 2026-04-22 18:41 | -34.55400 | -58.42326 | 28 ft | 8 kts | 125° |
| 2026-04-22 18:41 | -34.55439 | -58.42262 | 29 ft | 11 kts | 127° |
| 2026-04-22 18:41 | -34.55491 | -58.42179 | 28 ft | 14 kts | 128° |
| 2026-04-22 18:41 | -34.55555 | -58.42078 | 28 ft | 16 kts | 127° |
| 2026-04-22 18:42 | -34.55622 | -58.41962 | 28 ft | 18 kts | 124° |
| 2026-04-22 18:42 | -34.55693 | -58.41829 | 29 ft | 17 kts | 124° |
| 2026-04-22 18:42 | -34.55754 | -58.41711 | 29 ft | 14 kts | 117° |
| 2026-04-22 18:42 | -34.55783 | -58.41623 | 27 ft | 10 kts | 96° |
| 2026-04-22 18:43 | -34.55734 | -58.41560 | 25 ft | 11 kts | 34° |
| 2026-04-22 18:43 | -34.55675 | -58.41536 | 29 ft | 5 kts | 6° |
| 2026-04-22 18:43 | -34.55662 | -58.41533 | 27 ft | 0 kts | 10° |
| 2026-04-22 18:49 | -34.55662 | -58.41534 | 27 ft | 0 kts | 10° |